sensor_id;sensor_type;location;lat;lon;timestamp;P1;durP1;ratioP1;P2;durP2;ratioP2
70829;SDS011;58451;51.550;7.208;2022-08-24T00:01:59;10.50;;;4.10;;
70829;SDS011;58451;51.550;7.208;2022-08-24T00:04:27;11.00;;;4.20;;
70829;SDS011;58451;51.550;7.208;2022-08-24T00:06:58;9.60;;;4.10;;
70829;SDS011;58451;51.550;7.208;2022-08-24T00:09:27;9.60;;;4.10;;
70829;SDS011;58451;51.550;7.208;2022-08-24T00:11:55;8.90;;;3.60;;
70829;SDS011;58451;51.550;7.208;2022-08-24T00:14:22;9.60;;;4.00;;
70829;SDS011;58451;51.550;7.208;2022-08-24T00:16:49;7.80;;;3.60;;
70829;SDS011;58451;51.550;7.208;2022-08-24T00:19:16;9.50;;;4.00;;
70829;SDS011;58451;51.550;7.208;2022-08-24T00:21:43;11.00;;;4.30;;
70829;SDS011;58451;51.550;7.208;2022-08-24T00:24:10;9.70;;;4.00;;
70829;SDS011;58451;51.550;7.208;2022-08-24T00:26:37;12.40;;;4.50;;
70829;SDS011;58451;51.550;7.208;2022-08-24T00:29:04;9.60;;;4.30;;
70829;SDS011;58451;51.550;7.208;2022-08-24T00:31:33;10.20;;;4.80;;
70829;SDS011;58451;51.550;7.208;2022-08-24T00:34:00;10.00;;;4.50;;
70829;SDS011;58451;51.550;7.208;2022-08-24T00:36:28;14.30;;;4.80;;
70829;SDS011;58451;51.550;7.208;2022-08-24T00:38:55;12.20;;;4.70;;
70829;SDS011;58451;51.550;7.208;2022-08-24T00:41:22;10.80;;;4.70;;
70829;SDS011;58451;51.550;7.208;2022-08-24T00:43:55;9.30;;;4.60;;
70829;SDS011;58451;51.550;7.208;2022-08-24T00:47:10;8.90;;;4.10;;
70829;SDS011;58451;51.550;7.208;2022-08-24T00:49:46;12.50;;;4.70;;
70829;SDS011;58451;51.550;7.208;2022-08-24T00:55:28;11.00;;;4.10;;
70829;SDS011;58451;51.550;7.208;2022-08-24T00:58:02;12.10;;;4.90;;
70829;SDS011;58451;51.550;7.208;2022-08-24T01:00:41;11.10;;;4.80;;
70829;SDS011;58451;51.550;7.208;2022-08-24T01:03:14;8.70;;;4.20;;
70829;SDS011;58451;51.550;7.208;2022-08-24T01:05:42;9.10;;;4.00;;
70829;SDS011;58451;51.550;7.208;2022-08-24T01:08:11;9.20;;;4.50;;
70829;SDS011;58451;51.550;7.208;2022-08-24T01:10:44;11.40;;;4.50;;
70829;SDS011;58451;51.550;7.208;2022-08-24T01:13:15;11.00;;;5.30;;
70829;SDS011;58451;51.550;7.208;2022-08-24T01:15:45;10.30;;;4.40;;
70829;SDS011;58451;51.550;7.208;2022-08-24T01:18:18;9.50;;;4.00;;
70829;SDS011;58451;51.550;7.208;2022-08-24T01:23:59;10.10;;;4.60;;
70829;SDS011;58451;51.550;7.208;2022-08-24T01:26:38;10.70;;;4.40;;
70829;SDS011;58451;51.550;7.208;2022-08-24T01:29:28;9.60;;;4.00;;
70829;SDS011;58451;51.550;7.208;2022-08-24T01:31:58;12.30;;;4.10;;
70829;SDS011;58451;51.550;7.208;2022-08-24T01:34:25;9.80;;;4.50;;
70829;SDS011;58451;51.550;7.208;2022-08-24T01:36:55;10.40;;;4.30;;
70829;SDS011;58451;51.550;7.208;2022-08-24T01:42:01;9.40;;;4.20;;
70829;SDS011;58451;51.550;7.208;2022-08-24T01:44:31;10.10;;;4.30;;
70829;SDS011;58451;51.550;7.208;2022-08-24T01:47:04;7.20;;;3.80;;
70829;SDS011;58451;51.550;7.208;2022-08-24T01:49:35;10.40;;;4.50;;
70829;SDS011;58451;51.550;7.208;2022-08-24T01:52:05;11.00;;;4.40;;
70829;SDS011;58451;51.550;7.208;2022-08-24T01:54:34;9.70;;;4.30;;
70829;SDS011;58451;51.550;7.208;2022-08-24T01:57:02;8.60;;;4.10;;
70829;SDS011;58451;51.550;7.208;2022-08-24T01:59:31;10.70;;;4.30;;
70829;SDS011;58451;51.550;7.208;2022-08-24T02:02:12;11.30;;;4.60;;
70829;SDS011;58451;51.550;7.208;2022-08-24T02:04:44;11.00;;;4.90;;
70829;SDS011;58451;51.550;7.208;2022-08-24T02:07:12;13.10;;;5.00;;
70829;SDS011;58451;51.550;7.208;2022-08-24T02:09:40;10.40;;;4.80;;
70829;SDS011;58451;51.550;7.208;2022-08-24T02:12:07;8.80;;;4.50;;
70829;SDS011;58451;51.550;7.208;2022-08-24T02:14:35;10.70;;;4.70;;
70829;SDS011;58451;51.550;7.208;2022-08-24T02:17:05;12.80;;;5.40;;
70829;SDS011;58451;51.550;7.208;2022-08-24T02:19:33;12.00;;;5.60;;
70829;SDS011;58451;51.550;7.208;2022-08-24T02:22:01;12.20;;;5.40;;
70829;SDS011;58451;51.550;7.208;2022-08-24T02:24:34;10.10;;;4.50;;
70829;SDS011;58451;51.550;7.208;2022-08-24T02:27:02;10.80;;;4.90;;
70829;SDS011;58451;51.550;7.208;2022-08-24T02:29:31;11.60;;;5.00;;
70829;SDS011;58451;51.550;7.208;2022-08-24T02:31:58;10.10;;;4.70;;
70829;SDS011;58451;51.550;7.208;2022-08-24T02:34:25;11.90;;;5.00;;
70829;SDS011;58451;51.550;7.208;2022-08-24T02:36:52;10.70;;;5.10;;
70829;SDS011;58451;51.550;7.208;2022-08-24T02:39:19;10.10;;;5.10;;
70829;SDS011;58451;51.550;7.208;2022-08-24T02:41:47;12.40;;;5.40;;
70829;SDS011;58451;51.550;7.208;2022-08-24T02:44:14;11.60;;;5.60;;
70829;SDS011;58451;51.550;7.208;2022-08-24T02:46:41;11.20;;;5.20;;
70829;SDS011;58451;51.550;7.208;2022-08-24T02:49:10;13.10;;;5.20;;
70829;SDS011;58451;51.550;7.208;2022-08-24T02:51:42;11.10;;;5.30;;
70829;SDS011;58451;51.550;7.208;2022-08-24T02:54:17;12.50;;;5.10;;
70829;SDS011;58451;51.550;7.208;2022-08-24T02:56:46;12.90;;;5.00;;
70829;SDS011;58451;51.550;7.208;2022-08-24T02:59:15;12.80;;;5.10;;
70829;SDS011;58451;51.550;7.208;2022-08-24T03:01:43;9.50;;;4.90;;
70829;SDS011;58451;51.550;7.208;2022-08-24T03:04:12;13.60;;;5.40;;
70829;SDS011;58451;51.550;7.208;2022-08-24T03:06:40;11.30;;;5.20;;
70829;SDS011;58451;51.550;7.208;2022-08-24T03:09:08;12.80;;;5.00;;
70829;SDS011;58451;51.550;7.208;2022-08-24T03:11:36;11.30;;;5.10;;
70829;SDS011;58451;51.550;7.208;2022-08-24T03:14:04;10.80;;;4.60;;
70829;SDS011;58451;51.550;7.208;2022-08-24T03:16:31;11.30;;;4.90;;
70829;SDS011;58451;51.550;7.208;2022-08-24T03:18:59;14.40;;;5.40;;
70829;SDS011;58451;51.550;7.208;2022-08-24T03:21:27;11.30;;;4.90;;
70829;SDS011;58451;51.550;7.208;2022-08-24T03:23:54;11.80;;;5.20;;
70829;SDS011;58451;51.550;7.208;2022-08-24T03:26:21;12.50;;;5.50;;
70829;SDS011;58451;51.550;7.208;2022-08-24T03:28:50;14.20;;;6.00;;
70829;SDS011;58451;51.550;7.208;2022-08-24T03:31:17;12.10;;;5.40;;
70829;SDS011;58451;51.550;7.208;2022-08-24T03:33:45;13.90;;;5.70;;
70829;SDS011;58451;51.550;7.208;2022-08-24T03:36:12;11.50;;;5.80;;
70829;SDS011;58451;51.550;7.208;2022-08-24T03:38:40;12.60;;;5.50;;
70829;SDS011;58451;51.550;7.208;2022-08-24T03:41:09;14.00;;;6.20;;
70829;SDS011;58451;51.550;7.208;2022-08-24T03:43:38;11.20;;;5.10;;
70829;SDS011;58451;51.550;7.208;2022-08-24T03:46:20;13.30;;;5.60;;
70829;SDS011;58451;51.550;7.208;2022-08-24T03:48:52;12.50;;;5.30;;
70829;SDS011;58451;51.550;7.208;2022-08-24T03:51:23;11.50;;;5.50;;
70829;SDS011;58451;51.550;7.208;2022-08-24T03:53:53;13.10;;;5.50;;
70829;SDS011;58451;51.550;7.208;2022-08-24T03:56:24;12.40;;;5.40;;
70829;SDS011;58451;51.550;7.208;2022-08-24T03:58:51;13.00;;;6.20;;
70829;SDS011;58451;51.550;7.208;2022-08-24T04:01:19;12.70;;;6.40;;
70829;SDS011;58451;51.550;7.208;2022-08-24T04:03:48;13.60;;;6.40;;
70829;SDS011;58451;51.550;7.208;2022-08-24T04:06:17;15.00;;;6.20;;
70829;SDS011;58451;51.550;7.208;2022-08-24T04:08:45;15.60;;;6.40;;
70829;SDS011;58451;51.550;7.208;2022-08-24T04:11:15;16.00;;;6.50;;
70829;SDS011;58451;51.550;7.208;2022-08-24T04:13:45;15.00;;;6.50;;
70829;SDS011;58451;51.550;7.208;2022-08-24T04:16:16;13.60;;;6.10;;
70829;SDS011;58451;51.550;7.208;2022-08-24T04:18:47;17.10;;;7.00;;
70829;SDS011;58451;51.550;7.208;2022-08-24T04:21:23;15.50;;;7.00;;
70829;SDS011;58451;51.550;7.208;2022-08-24T04:23:53;14.00;;;6.40;;
70829;SDS011;58451;51.550;7.208;2022-08-24T04:26:23;13.80;;;6.50;;
70829;SDS011;58451;51.550;7.208;2022-08-24T04:29:14;15.30;;;7.30;;
70829;SDS011;58451;51.550;7.208;2022-08-24T04:31:46;13.80;;;6.80;;
70829;SDS011;58451;51.550;7.208;2022-08-24T04:34:15;14.70;;;7.00;;
70829;SDS011;58451;51.550;7.208;2022-08-24T04:36:44;15.00;;;6.50;;
70829;SDS011;58451;51.550;7.208;2022-08-24T04:39:12;13.00;;;6.90;;
70829;SDS011;58451;51.550;7.208;2022-08-24T04:41:59;18.10;;;6.90;;
70829;SDS011;58451;51.550;7.208;2022-08-24T04:44:33;15.80;;;7.20;;
70829;SDS011;58451;51.550;7.208;2022-08-24T04:47:01;15.50;;;7.40;;
70829;SDS011;58451;51.550;7.208;2022-08-24T04:49:28;15.90;;;7.20;;
70829;SDS011;58451;51.550;7.208;2022-08-24T04:51:56;15.40;;;7.10;;
70829;SDS011;58451;51.550;7.208;2022-08-24T04:54:24;16.90;;;7.70;;
70829;SDS011;58451;51.550;7.208;2022-08-24T04:57:01;15.70;;;7.40;;
70829;SDS011;58451;51.550;7.208;2022-08-24T04:59:28;15.00;;;7.70;;
70829;SDS011;58451;51.550;7.208;2022-08-24T05:01:55;13.50;;;7.40;;
70829;SDS011;58451;51.550;7.208;2022-08-24T05:04:22;16.40;;;7.10;;
70829;SDS011;58451;51.550;7.208;2022-08-24T05:06:50;16.60;;;7.30;;
70829;SDS011;58451;51.550;7.208;2022-08-24T05:09:19;14.70;;;7.00;;
70829;SDS011;58451;51.550;7.208;2022-08-24T05:11:46;13.80;;;6.90;;
70829;SDS011;58451;51.550;7.208;2022-08-24T05:14:19;14.60;;;6.90;;
70829;SDS011;58451;51.550;7.208;2022-08-24T05:16:51;16.60;;;6.90;;
70829;SDS011;58451;51.550;7.208;2022-08-24T05:19:20;14.00;;;7.40;;
70829;SDS011;58451;51.550;7.208;2022-08-24T05:21:49;14.90;;;7.50;;
70829;SDS011;58451;51.550;7.208;2022-08-24T05:24:17;14.50;;;7.50;;
70829;SDS011;58451;51.550;7.208;2022-08-24T05:26:45;14.80;;;6.80;;
70829;SDS011;58451;51.550;7.208;2022-08-24T05:29:12;13.80;;;6.80;;
70829;SDS011;58451;51.550;7.208;2022-08-24T05:31:46;15.50;;;6.80;;
70829;SDS011;58451;51.550;7.208;2022-08-24T05:34:14;15.90;;;7.10;;
70829;SDS011;58451;51.550;7.208;2022-08-24T05:36:41;13.10;;;7.00;;
70829;SDS011;58451;51.550;7.208;2022-08-24T05:39:29;13.80;;;6.80;;
70829;SDS011;58451;51.550;7.208;2022-08-24T05:42:02;14.50;;;7.30;;
70829;SDS011;58451;51.550;7.208;2022-08-24T05:44:30;15.10;;;7.50;;
70829;SDS011;58451;51.550;7.208;2022-08-24T05:46:59;15.10;;;6.90;;
70829;SDS011;58451;51.550;7.208;2022-08-24T05:49:28;14.70;;;7.20;;
70829;SDS011;58451;51.550;7.208;2022-08-24T05:51:56;15.20;;;7.30;;
70829;SDS011;58451;51.550;7.208;2022-08-24T05:54:24;18.80;;;6.90;;
70829;SDS011;58451;51.550;7.208;2022-08-24T05:56:58;17.60;;;6.50;;
70829;SDS011;58451;51.550;7.208;2022-08-24T05:59:41;15.30;;;6.90;;
70829;SDS011;58451;51.550;7.208;2022-08-24T06:02:12;12.80;;;6.40;;
70829;SDS011;58451;51.550;7.208;2022-08-24T06:04:40;15.00;;;7.10;;
70829;SDS011;58451;51.550;7.208;2022-08-24T06:07:08;13.50;;;5.90;;
70829;SDS011;58451;51.550;7.208;2022-08-24T06:09:38;13.80;;;6.10;;
70829;SDS011;58451;51.550;7.208;2022-08-24T06:12:06;16.30;;;6.90;;
70829;SDS011;58451;51.550;7.208;2022-08-24T06:14:35;17.60;;;6.70;;
70829;SDS011;58451;51.550;7.208;2022-08-24T06:17:04;19.70;;;7.70;;
70829;SDS011;58451;51.550;7.208;2022-08-24T06:19:34;15.40;;;6.90;;
70829;SDS011;58451;51.550;7.208;2022-08-24T06:22:01;18.70;;;6.90;;
70829;SDS011;58451;51.550;7.208;2022-08-24T06:24:28;20.00;;;7.50;;
70829;SDS011;58451;51.550;7.208;2022-08-24T06:27:15;16.20;;;7.80;;
70829;SDS011;58451;51.550;7.208;2022-08-24T06:30:01;19.40;;;7.10;;
70829;SDS011;58451;51.550;7.208;2022-08-24T06:32:58;18.30;;;7.20;;
70829;SDS011;58451;51.550;7.208;2022-08-24T06:35:31;14.40;;;6.60;;
70829;SDS011;58451;51.550;7.208;2022-08-24T06:37:58;18.20;;;7.20;;
70829;SDS011;58451;51.550;7.208;2022-08-24T06:40:26;15.50;;;7.30;;
70829;SDS011;58451;51.550;7.208;2022-08-24T06:42:54;13.30;;;6.40;;
70829;SDS011;58451;51.550;7.208;2022-08-24T06:45:31;14.50;;;7.00;;
70829;SDS011;58451;51.550;7.208;2022-08-24T06:47:58;14.00;;;6.80;;
70829;SDS011;58451;51.550;7.208;2022-08-24T06:50:26;14.50;;;7.00;;
70829;SDS011;58451;51.550;7.208;2022-08-24T06:52:54;15.60;;;7.20;;
70829;SDS011;58451;51.550;7.208;2022-08-24T06:55:22;12.10;;;6.60;;
70829;SDS011;58451;51.550;7.208;2022-08-24T06:57:49;16.90;;;7.00;;
70829;SDS011;58451;51.550;7.208;2022-08-24T07:00:18;16.50;;;7.30;;
70829;SDS011;58451;51.550;7.208;2022-08-24T07:02:47;16.70;;;7.00;;
70829;SDS011;58451;51.550;7.208;2022-08-24T07:05:15;14.60;;;7.40;;
70829;SDS011;58451;51.550;7.208;2022-08-24T07:08:14;14.90;;;6.30;;
70829;SDS011;58451;51.550;7.208;2022-08-24T07:10:42;13.60;;;6.80;;
70829;SDS011;58451;51.550;7.208;2022-08-24T07:13:09;16.60;;;6.80;;
70829;SDS011;58451;51.550;7.208;2022-08-24T07:15:38;17.30;;;5.90;;
70829;SDS011;58451;51.550;7.208;2022-08-24T07:18:16;12.60;;;6.30;;
70829;SDS011;58451;51.550;7.208;2022-08-24T07:20:47;12.70;;;6.50;;
70829;SDS011;58451;51.550;7.208;2022-08-24T07:23:23;13.30;;;6.40;;
70829;SDS011;58451;51.550;7.208;2022-08-24T07:26:13;15.60;;;5.90;;
70829;SDS011;58451;51.550;7.208;2022-08-24T07:28:52;15.00;;;6.60;;
70829;SDS011;58451;51.550;7.208;2022-08-24T07:31:26;14.90;;;6.10;;
70829;SDS011;58451;51.550;7.208;2022-08-24T07:34:07;13.20;;;5.40;;
70829;SDS011;58451;51.550;7.208;2022-08-24T07:36:38;11.60;;;5.00;;
70829;SDS011;58451;51.550;7.208;2022-08-24T07:39:10;11.70;;;4.50;;
70829;SDS011;58451;51.550;7.208;2022-08-24T07:41:39;8.60;;;3.50;;
70829;SDS011;58451;51.550;7.208;2022-08-24T07:44:28;6.70;;;2.90;;
70829;SDS011;58451;51.550;7.208;2022-08-24T07:46:56;9.90;;;3.50;;
70829;SDS011;58451;51.550;7.208;2022-08-24T07:49:41;8.30;;;3.20;;
70829;SDS011;58451;51.550;7.208;2022-08-24T07:52:07;8.50;;;3.70;;
70829;SDS011;58451;51.550;7.208;2022-08-24T07:54:36;7.50;;;3.30;;
70829;SDS011;58451;51.550;7.208;2022-08-24T07:57:04;9.20;;;3.40;;
70829;SDS011;58451;51.550;7.208;2022-08-24T07:59:35;7.10;;;3.00;;
70829;SDS011;58451;51.550;7.208;2022-08-24T08:02:04;10.00;;;3.50;;
70829;SDS011;58451;51.550;7.208;2022-08-24T08:04:31;8.60;;;3.60;;
70829;SDS011;58451;51.550;7.208;2022-08-24T08:06:59;8.60;;;3.60;;
70829;SDS011;58451;51.550;7.208;2022-08-24T08:09:30;7.30;;;3.10;;
70829;SDS011;58451;51.550;7.208;2022-08-24T08:11:57;8.70;;;3.20;;
70829;SDS011;58451;51.550;7.208;2022-08-24T08:14:24;6.40;;;2.20;;
70829;SDS011;58451;51.550;7.208;2022-08-24T08:16:52;8.70;;;3.30;;
70829;SDS011;58451;51.550;7.208;2022-08-24T08:19:19;9.00;;;3.20;;
70829;SDS011;58451;51.550;7.208;2022-08-24T08:21:49;7.80;;;3.20;;
70829;SDS011;58451;51.550;7.208;2022-08-24T08:24:56;8.40;;;3.60;;
70829;SDS011;58451;51.550;7.208;2022-08-24T08:27:23;8.30;;;3.50;;
70829;SDS011;58451;51.550;7.208;2022-08-24T08:29:50;10.80;;;2.70;;
70829;SDS011;58451;51.550;7.208;2022-08-24T08:32:18;9.00;;;3.80;;
70829;SDS011;58451;51.550;7.208;2022-08-24T08:34:46;9.90;;;3.90;;
70829;SDS011;58451;51.550;7.208;2022-08-24T08:37:13;10.80;;;3.90;;
70829;SDS011;58451;51.550;7.208;2022-08-24T08:39:42;10.10;;;3.80;;
70829;SDS011;58451;51.550;7.208;2022-08-24T08:56:27;10.10;;;3.40;;
70829;SDS011;58451;51.550;7.208;2022-08-24T08:59:10;9.50;;;3.30;;
70829;SDS011;58451;51.550;7.208;2022-08-24T09:10:53;8.00;;;3.20;;
70829;SDS011;58451;51.550;7.208;2022-08-24T09:22:23;5.90;;;2.70;;
70829;SDS011;58451;51.550;7.208;2022-08-24T09:33:47;8.50;;;3.10;;
70829;SDS011;58451;51.550;7.208;2022-08-24T09:36:54;6.50;;;3.20;;
70829;SDS011;58451;51.550;7.208;2022-08-24T09:50:51;5.90;;;2.10;;
70829;SDS011;58451;51.550;7.208;2022-08-24T10:13:07;5.50;;;2.50;;
70829;SDS011;58451;51.550;7.208;2022-08-24T10:19:00;6.60;;;2.70;;
70829;SDS011;58451;51.550;7.208;2022-08-24T10:31:26;4.00;;;2.10;;
70829;SDS011;58451;51.550;7.208;2022-08-24T10:46:35;4.80;;;2.40;;
70829;SDS011;58451;51.550;7.208;2022-08-24T10:54:50;5.30;;;2.60;;
70829;SDS011;58451;51.550;7.208;2022-08-24T10:57:37;5.90;;;2.60;;
70829;SDS011;58451;51.550;7.208;2022-08-24T11:00:12;4.60;;;2.80;;
70829;SDS011;58451;51.550;7.208;2022-08-24T11:03:13;7.40;;;2.80;;
70829;SDS011;58451;51.550;7.208;2022-08-24T11:05:50;6.00;;;3.00;;
70829;SDS011;58451;51.550;7.208;2022-08-24T11:08:29;7.30;;;2.90;;
70829;SDS011;58451;51.550;7.208;2022-08-24T11:11:11;9.30;;;3.30;;
70829;SDS011;58451;51.550;7.208;2022-08-24T11:13:54;8.00;;;3.20;;
70829;SDS011;58451;51.550;7.208;2022-08-24T11:16:42;5.20;;;2.60;;
70829;SDS011;58451;51.550;7.208;2022-08-24T11:21:59;5.70;;;2.90;;
70829;SDS011;58451;51.550;7.208;2022-08-24T11:24:44;6.40;;;3.20;;
70829;SDS011;58451;51.550;7.208;2022-08-24T11:32:43;7.40;;;3.30;;
70829;SDS011;58451;51.550;7.208;2022-08-24T11:40:36;7.00;;;3.10;;
70829;SDS011;58451;51.550;7.208;2022-08-24T11:55:06;7.90;;;3.00;;
70829;SDS011;58451;51.550;7.208;2022-08-24T11:57:46;7.70;;;3.20;;
70829;SDS011;58451;51.550;7.208;2022-08-24T12:00:22;6.70;;;3.70;;
70829;SDS011;58451;51.550;7.208;2022-08-24T12:08:50;5.10;;;3.00;;
70829;SDS011;58451;51.550;7.208;2022-08-24T12:14:22;6.70;;;3.40;;
70829;SDS011;58451;51.550;7.208;2022-08-24T12:17:02;5.50;;;3.40;;
70829;SDS011;58451;51.550;7.208;2022-08-24T12:19:41;5.50;;;2.90;;
70829;SDS011;58451;51.550;7.208;2022-08-24T12:22:14;4.30;;;2.80;;
70829;SDS011;58451;51.550;7.208;2022-08-24T12:24:51;6.90;;;3.60;;
70829;SDS011;58451;51.550;7.208;2022-08-24T12:27:24;5.50;;;3.50;;
70829;SDS011;58451;51.550;7.208;2022-08-24T12:30:13;4.70;;;2.80;;
70829;SDS011;58451;51.550;7.208;2022-08-24T12:32:45;6.10;;;3.00;;
70829;SDS011;58451;51.550;7.208;2022-08-24T12:35:30;5.60;;;2.90;;
70829;SDS011;58451;51.550;7.208;2022-08-24T12:38:18;7.30;;;4.00;;
70829;SDS011;58451;51.550;7.208;2022-08-24T12:41:25;7.30;;;3.90;;
70829;SDS011;58451;51.550;7.208;2022-08-24T12:46:39;6.80;;;3.60;;
70829;SDS011;58451;51.550;7.208;2022-08-24T12:52:38;5.30;;;3.80;;
70829;SDS011;58451;51.550;7.208;2022-08-24T12:55:09;8.70;;;4.00;;
70829;SDS011;58451;51.550;7.208;2022-08-24T12:58:02;5.90;;;3.00;;
70829;SDS011;58451;51.550;7.208;2022-08-24T13:00:50;5.70;;;3.80;;
70829;SDS011;58451;51.550;7.208;2022-08-24T13:03:39;6.90;;;4.30;;
70829;SDS011;58451;51.550;7.208;2022-08-24T13:06:42;5.80;;;3.90;;
70829;SDS011;58451;51.550;7.208;2022-08-24T13:09:30;5.40;;;3.30;;
70829;SDS011;58451;51.550;7.208;2022-08-24T13:17:57;6.90;;;3.90;;
70829;SDS011;58451;51.550;7.208;2022-08-24T13:41:48;7.10;;;4.10;;
70829;SDS011;58451;51.550;7.208;2022-08-24T13:47:56;6.30;;;4.20;;
70829;SDS011;58451;51.550;7.208;2022-08-24T13:50:50;4.40;;;3.50;;
70829;SDS011;58451;51.550;7.208;2022-08-24T14:09:27;7.60;;;4.50;;
70829;SDS011;58451;51.550;7.208;2022-08-24T14:17:36;8.10;;;5.60;;
70829;SDS011;58451;51.550;7.208;2022-08-24T14:20:41;8.30;;;6.90;;
70829;SDS011;58451;51.550;7.208;2022-08-24T14:34:58;10.70;;;9.60;;
70829;SDS011;58451;51.550;7.208;2022-08-24T14:40:51;10.30;;;9.30;;
70829;SDS011;58451;51.550;7.208;2022-08-24T14:49:33;12.40;;;11.30;;
70829;SDS011;58451;51.550;7.208;2022-08-24T14:58:05;15.30;;;14.00;;
70829;SDS011;58451;51.550;7.208;2022-08-24T15:06:24;13.70;;;12.70;;
70829;SDS011;58451;51.550;7.208;2022-08-24T15:11:48;13.40;;;12.20;;
70829;SDS011;58451;51.550;7.208;2022-08-24T15:17:20;14.60;;;13.40;;
70829;SDS011;58451;51.550;7.208;2022-08-24T15:20:22;14.60;;;13.30;;
70829;SDS011;58451;51.550;7.208;2022-08-24T15:23:25;14.50;;;13.40;;
70829;SDS011;58451;51.550;7.208;2022-08-24T15:26:09;16.70;;;15.30;;
70829;SDS011;58451;51.550;7.208;2022-08-24T15:29:09;24.90;;;23.10;;
70829;SDS011;58451;51.550;7.208;2022-08-24T15:31:41;25.30;;;23.60;;
70829;SDS011;58451;51.550;7.208;2022-08-24T15:34:42;21.80;;;20.40;;
70829;SDS011;58451;51.550;7.208;2022-08-24T15:37:26;24.60;;;22.90;;
70829;SDS011;58451;51.550;7.208;2022-08-24T15:39:54;25.40;;;23.70;;
70829;SDS011;58451;51.550;7.208;2022-08-24T15:42:22;26.10;;;24.40;;
70829;SDS011;58451;51.550;7.208;2022-08-24T15:44:50;29.20;;;27.30;;
70829;SDS011;58451;51.550;7.208;2022-08-24T15:47:25;27.90;;;26.20;;
70829;SDS011;58451;51.550;7.208;2022-08-24T15:50:00;31.30;;;29.40;;
70829;SDS011;58451;51.550;7.208;2022-08-24T15:55:40;32.30;;;30.10;;
70829;SDS011;58451;51.550;7.208;2022-08-24T15:58:32;31.20;;;29.30;;
70829;SDS011;58451;51.550;7.208;2022-08-24T16:03:57;30.90;;;28.80;;
70829;SDS011;58451;51.550;7.208;2022-08-24T16:14:37;33.80;;;31.70;;
70829;SDS011;58451;51.550;7.208;2022-08-24T16:17:21;34.00;;;31.90;;
70829;SDS011;58451;51.550;7.208;2022-08-24T16:20:02;30.70;;;28.80;;
70829;SDS011;58451;51.550;7.208;2022-08-24T16:25:41;37.10;;;34.80;;
70829;SDS011;58451;51.550;7.208;2022-08-24T16:30:52;36.80;;;34.50;;
70829;SDS011;58451;51.550;7.208;2022-08-24T16:33:34;37.20;;;34.90;;
70829;SDS011;58451;51.550;7.208;2022-08-24T16:36:13;33.40;;;31.20;;
70829;SDS011;58451;51.550;7.208;2022-08-24T16:38:46;32.10;;;30.10;;
70829;SDS011;58451;51.550;7.208;2022-08-24T16:41:18;37.20;;;35.10;;
70829;SDS011;58451;51.550;7.208;2022-08-24T16:43:50;34.60;;;32.50;;
70829;SDS011;58451;51.550;7.208;2022-08-24T16:46:20;31.50;;;29.60;;
70829;SDS011;58451;51.550;7.208;2022-08-24T16:48:49;30.80;;;28.90;;
70829;SDS011;58451;51.550;7.208;2022-08-24T16:51:19;38.30;;;36.00;;
70829;SDS011;58451;51.550;7.208;2022-08-24T16:53:50;32.80;;;30.80;;
70829;SDS011;58451;51.550;7.208;2022-08-24T16:56:17;30.30;;;28.30;;
70829;SDS011;58451;51.550;7.208;2022-08-24T16:58:46;34.30;;;32.20;;
70829;SDS011;58451;51.550;7.208;2022-08-24T17:01:14;31.70;;;29.80;;
70829;SDS011;58451;51.550;7.208;2022-08-24T17:03:41;28.80;;;27.00;;
70829;SDS011;58451;51.550;7.208;2022-08-24T17:06:09;26.50;;;24.70;;
70829;SDS011;58451;51.550;7.208;2022-08-24T17:08:40;26.20;;;24.60;;
70829;SDS011;58451;51.550;7.208;2022-08-24T17:11:07;24.60;;;23.00;;
70829;SDS011;58451;51.550;7.208;2022-08-24T17:13:35;23.00;;;21.40;;
70829;SDS011;58451;51.550;7.208;2022-08-24T17:16:16;21.30;;;19.70;;
70829;SDS011;58451;51.550;7.208;2022-08-24T17:18:45;15.90;;;14.40;;
70829;SDS011;58451;51.550;7.208;2022-08-24T17:21:12;16.20;;;15.00;;
70829;SDS011;58451;51.550;7.208;2022-08-24T17:23:40;13.30;;;12.10;;
70829;SDS011;58451;51.550;7.208;2022-08-24T17:26:12;11.90;;;10.80;;
70829;SDS011;58451;51.550;7.208;2022-08-24T17:28:49;10.80;;;9.80;;
70829;SDS011;58451;51.550;7.208;2022-08-24T17:31:21;11.60;;;9.40;;
70829;SDS011;58451;51.550;7.208;2022-08-24T17:33:51;10.50;;;8.50;;
70829;SDS011;58451;51.550;7.208;2022-08-24T17:36:20;9.90;;;7.50;;
70829;SDS011;58451;51.550;7.208;2022-08-24T17:38:51;8.10;;;6.40;;
70829;SDS011;58451;51.550;7.208;2022-08-24T17:41:23;9.80;;;6.80;;
70829;SDS011;58451;51.550;7.208;2022-08-24T17:43:51;8.40;;;5.60;;
70829;SDS011;58451;51.550;7.208;2022-08-24T17:46:19;9.40;;;6.20;;
70829;SDS011;58451;51.550;7.208;2022-08-24T17:48:47;7.30;;;5.20;;
70829;SDS011;58451;51.550;7.208;2022-08-24T17:51:15;7.80;;;5.20;;
70829;SDS011;58451;51.550;7.208;2022-08-24T17:53:42;7.10;;;4.20;;
70829;SDS011;58451;51.550;7.208;2022-08-24T17:56:10;5.50;;;4.30;;
70829;SDS011;58451;51.550;7.208;2022-08-24T17:58:41;7.00;;;4.90;;
70829;SDS011;58451;51.550;7.208;2022-08-24T18:01:28;5.90;;;4.00;;
70829;SDS011;58451;51.550;7.208;2022-08-24T18:03:55;8.70;;;4.10;;
70829;SDS011;58451;51.550;7.208;2022-08-24T18:06:23;7.10;;;4.60;;
70829;SDS011;58451;51.550;7.208;2022-08-24T18:08:53;7.00;;;3.70;;
70829;SDS011;58451;51.550;7.208;2022-08-24T18:11:23;6.90;;;4.70;;
70829;SDS011;58451;51.550;7.208;2022-08-24T18:13:52;5.90;;;4.50;;
70829;SDS011;58451;51.550;7.208;2022-08-24T18:16:23;8.70;;;3.90;;
70829;SDS011;58451;51.550;7.208;2022-08-24T18:18:53;6.40;;;3.50;;
70829;SDS011;58451;51.550;7.208;2022-08-24T18:21:21;9.80;;;4.10;;
70829;SDS011;58451;51.550;7.208;2022-08-24T18:23:48;7.60;;;3.70;;
70829;SDS011;58451;51.550;7.208;2022-08-24T18:26:25;6.40;;;3.50;;
70829;SDS011;58451;51.550;7.208;2022-08-24T18:28:56;7.60;;;3.40;;
70829;SDS011;58451;51.550;7.208;2022-08-24T18:31:27;8.60;;;3.50;;
70829;SDS011;58451;51.550;7.208;2022-08-24T18:33:54;8.50;;;3.40;;
70829;SDS011;58451;51.550;7.208;2022-08-24T18:36:21;7.50;;;3.20;;
70829;SDS011;58451;51.550;7.208;2022-08-24T18:38:48;5.80;;;3.60;;
70829;SDS011;58451;51.550;7.208;2022-08-24T18:41:15;7.90;;;3.70;;
70829;SDS011;58451;51.550;7.208;2022-08-24T18:43:43;7.10;;;3.30;;
70829;SDS011;58451;51.550;7.208;2022-08-24T18:46:10;7.30;;;3.30;;
70829;SDS011;58451;51.550;7.208;2022-08-24T18:48:38;6.40;;;3.00;;
70829;SDS011;58451;51.550;7.208;2022-08-24T18:51:05;7.60;;;3.10;;
70829;SDS011;58451;51.550;7.208;2022-08-24T18:53:32;8.00;;;3.20;;
70829;SDS011;58451;51.550;7.208;2022-08-24T18:56:02;7.70;;;3.30;;
70829;SDS011;58451;51.550;7.208;2022-08-24T18:58:37;6.90;;;3.40;;
70829;SDS011;58451;51.550;7.208;2022-08-24T19:01:05;8.30;;;3.20;;
70829;SDS011;58451;51.550;7.208;2022-08-24T19:03:33;9.60;;;3.20;;
70829;SDS011;58451;51.550;7.208;2022-08-24T19:06:00;7.70;;;3.50;;
70829;SDS011;58451;51.550;7.208;2022-08-24T19:08:27;6.80;;;3.00;;
70829;SDS011;58451;51.550;7.208;2022-08-24T19:10:54;8.10;;;3.30;;
70829;SDS011;58451;51.550;7.208;2022-08-24T19:13:21;8.70;;;3.40;;
70829;SDS011;58451;51.550;7.208;2022-08-24T19:15:50;6.80;;;3.10;;
70829;SDS011;58451;51.550;7.208;2022-08-24T19:18:19;8.30;;;2.90;;
70829;SDS011;58451;51.550;7.208;2022-08-24T19:20:53;6.00;;;3.10;;
70829;SDS011;58451;51.550;7.208;2022-08-24T19:23:33;5.10;;;2.70;;
70829;SDS011;58451;51.550;7.208;2022-08-24T19:26:02;6.50;;;3.00;;
70829;SDS011;58451;51.550;7.208;2022-08-24T19:28:30;7.90;;;3.40;;
70829;SDS011;58451;51.550;7.208;2022-08-24T19:30:59;7.90;;;3.60;;
70829;SDS011;58451;51.550;7.208;2022-08-24T19:33:35;6.90;;;3.20;;
70829;SDS011;58451;51.550;7.208;2022-08-24T19:36:06;7.40;;;3.20;;